Time,TemperatureF,DewpointF,PressureIn,WindDirection,WindDirectionDegrees,WindSpeedMPH,WindSpeedGustMPH,Humidity,HourlyPrecipIn,Conditions,Clouds,dailyrainin,SolarRadiationWatts/m^2,SoftwareType,DateUTC
2014-01-15 00:01:00,27.9,18.0,30.10,South,182,1.0,2.0,66,0.00,,---,0.00,0.00,VWS V14.00,2014-01-15 07:01:00,
2014-01-15 00:16:00,27.5,17.6,30.09,NNW,342,1.0,2.0,66,0.00,,---,0.00,0.00,VWS V14.00,2014-01-15 07:16:00,
2014-01-15 00:31:00,28.1,18.2,30.09,NNW,337,1.0,3.0,66,0.00,,---,0.00,0.00,VWS V14.00,2014-01-15 07:31:00,
2014-01-15 00:46:00,28.4,17.4,30.08,SSE,167,1.0,5.0,63,0.00,,---,0.00,0.00,VWS V14.00,2014-01-15 07:46:00,
2014-01-15 01:01:00,28.1,17.5,30.07,NW,306,0.0,8.0,64,0.00,,---,0.00,0.00,VWS V14.00,2014-01-15 08:01:00,
2014-01-15 01:16:00,31.5,17.6,30.05,NNW,343,0.0,7.0,56,0.00,,---,0.00,0.00,VWS V14.00,2014-01-15 08:16:00,
2014-01-15 01:30:00,32.8,18.4,30.03,NNW,340,1.0,8.0,55,0.00,,---,0.00,0.00,VWS V14.00,2014-01-15 08:30:00,
2014-01-15 01:46:00,30.4,19.3,30.05,NW,304,0.0,2.0,63,0.00,,---,0.00,0.00,VWS V14.00,2014-01-15 08:46:00,
2014-01-15 02:01:00,27.9,17.7,30.06,NE,42,0.0,2.0,65,0.00,,---,0.00,0.00,VWS V14.00,2014-01-15 09:01:00,
2014-01-15 02:15:00,26.4,17.3,30.07,NE,42,0.0,0.0,68,0.00,,---,0.00,0.00,VWS V14.00,2014-01-15 09:15:00,
2014-01-15 02:31:00,25.3,16.9,30.07,NE,42,0.0,0.0,70,0.00,,---,0.00,0.00,VWS V14.00,2014-01-15 09:31:00,
2014-01-15 02:46:00,24.5,16.8,30.06,NE,42,0.0,1.0,72,0.00,,---,0.00,0.00,VWS V14.00,2014-01-15 09:46:00,
2014-01-15 03:01:00,23.8,16.7,30.06,NE,42,0.0,2.0,74,0.00,,---,0.00,0.00,VWS V14.00,2014-01-15 10:01:00,
2014-01-15 03:16:00,23.3,16.2,30.06,NE,42,0.0,1.0,74,0.00,,---,0.00,0.00,VWS V14.00,2014-01-15 10:16:00,
2014-01-15 03:30:00,22.9,16.5,30.05,NE,42,1.0,1.0,76,0.00,,---,0.00,0.00,VWS V14.00,2014-01-15 10:30:00,
2014-01-15 03:45:00,23.8,17.4,30.03,NW,325,1.0,3.0,76,0.00,,---,0.00,0.00,VWS V14.00,2014-01-15 10:45:00,
2014-01-15 04:00:00,26.4,18.3,30.01,NW,311,2.0,2.0,71,0.00,,---,0.00,0.00,VWS V14.00,2014-01-15 11:00:00,
2014-01-15 04:16:00,32.7,18.3,29.98,WSW,241,7.0,8.0,55,0.00,,---,0.00,0.00,VWS V14.00,2014-01-15 11:16:00,
2014-01-15 04:30:00,36.6,18.3,29.94,NNW,340,6.0,7.0,47,0.00,,---,0.00,0.00,VWS V14.00,2014-01-15 11:30:00,
2014-01-15 04:45:00,40.3,17.3,29.92,NNW,332,3.0,11.0,39,0.00,,---,0.00,0.00,VWS V14.00,2014-01-15 11:45:00,
2014-01-15 05:00:00,41.3,16.4,29.90,NNW,328,3.0,11.0,36,0.00,,---,0.00,0.00,VWS V14.00,2014-01-15 12:00:00,
2014-01-15 05:16:00,40.3,17.3,29.91,WNW,298,2.0,7.0,39,0.00,,---,0.00,0.00,VWS V14.00,2014-01-15 12:16:00,
2014-01-15 05:31:00,39.6,16.7,29.91,West,274,3.0,4.0,39,0.00,,---,0.00,0.00,VWS V14.00,2014-01-15 12:31:00,
2014-01-15 05:45:00,40.1,16.5,29.91,West,278,0.0,4.0,38,0.00,,---,0.00,0.00,VWS V14.00,2014-01-15 12:45:00,
2014-01-15 06:01:00,41.1,16.2,29.92,NW,319,4.0,7.0,36,0.00,,---,0.00,0.00,VWS V14.00,2014-01-15 13:01:00,
2014-01-15 06:16:00,41.8,16.2,29.92,WNW,299,4.0,11.0,35,0.00,,---,0.00,0.00,VWS V14.00,2014-01-15 13:16:00,
2014-01-15 06:30:00,41.2,16.9,29.92,WSW,240,4.0,7.0,37,0.00,,---,0.00,0.00,VWS V14.00,2014-01-15 13:30:00,
2014-01-15 06:45:00,40.8,17.2,29.92,NW,323,6.0,13.0,38,0.00,,---,0.00,0.00,VWS V14.00,2014-01-15 13:45:00,
2014-01-15 07:00:00,41.5,15.2,29.91,NW,313,5.0,11.0,34,0.00,,---,0.00,0.00,VWS V14.00,2014-01-15 14:00:00,
2014-01-15 07:15:00,41.6,14.6,29.92,West,275,6.0,10.0,33,0.00,,---,0.00,11.00,VWS V14.00,2014-01-15 14:15:00,
2014-01-15 07:31:00,42.2,13.8,29.92,WNW,299,2.0,12.0,31,0.00,,---,0.00,21.00,VWS V14.00,2014-01-15 14:31:00,
2014-01-15 07:45:00,41.9,14.2,29.91,NW,316,3.0,11.0,32,0.00,,---,0.00,16.00,VWS V14.00,2014-01-15 14:45:00,
2014-01-15 08:00:00,41.9,13.5,29.91,NW,304,6.0,7.0,31,0.00,,---,0.00,23.00,VWS V14.00,2014-01-15 15:00:00,
2014-01-15 08:15:00,42.9,12.9,29.91,NW,304,3.0,12.0,29,0.00,,---,0.00,135.00,VWS V14.00,2014-01-15 15:15:00,
2014-01-15 08:30:00,43.9,13.7,29.89,WNW,288,5.0,7.0,29,0.00,,---,0.00,95.00,VWS V14.00,2014-01-15 15:30:00,
2014-01-15 08:45:00,46.5,15.2,29.88,WSW,253,2.0,6.0,28,0.00,,---,0.00,611.00,VWS V14.00,2014-01-15 15:45:00,
2014-01-15 09:00:00,49.6,14.3,29.85,WSW,257,0.0,3.0,24,0.00,,---,0.00,755.00,VWS V14.00,2014-01-15 16:00:00,
2014-01-15 09:15:00,51.7,14.1,29.85,North,354,1.0,7.0,22,0.00,,---,0.00,605.00,VWS V14.00,2014-01-15 16:15:00,
2014-01-15 09:30:00,51.1,13.6,29.86,NNW,336,10.0,10.0,22,0.00,,---,0.00,371.00,VWS V14.00,2014-01-15 16:30:00,
2014-01-15 09:45:00,50.4,14.0,29.86,NW,309,5.0,10.0,23,0.00,,---,0.00,187.00,VWS V14.00,2014-01-15 16:45:00,
2014-01-15 10:00:00,49.9,13.6,29.87,West,260,13.0,13.0,23,0.00,,---,0.00,151.00,VWS V14.00,2014-01-15 17:00:00,
2014-01-15 10:15:00,49.5,13.2,29.87,NNW,329,2.0,14.0,23,0.00,,---,0.00,160.00,VWS V14.00,2014-01-15 17:15:00,
2014-01-15 10:30:00,49.5,13.2,29.86,NNW,329,6.0,12.0,23,0.00,,---,0.00,150.00,VWS V14.00,2014-01-15 17:30:00,
2014-01-15 10:45:00,50.4,13.0,29.86,WNW,291,2.0,13.0,22,0.00,,---,0.00,155.00,VWS V14.00,2014-01-15 17:45:00,
2014-01-15 11:00:00,51.1,13.6,29.85,NNW,343,10.0,11.0,22,0.00,,---,0.00,257.00,VWS V14.00,2014-01-15 18:00:00,
2014-01-15 11:15:00,51.4,12.8,29.84,NW,319,5.0,14.0,21,0.00,,---,0.00,398.00,VWS V14.00,2014-01-15 18:15:00,
2014-01-15 11:30:00,51.7,11.9,29.83,NNW,335,7.0,13.0,20,0.00,,---,0.00,320.00,VWS V14.00,2014-01-15 18:30:00,
2014-01-15 11:45:00,50.8,12.3,29.84,North,0,11.0,18.0,21,0.00,,---,0.00,445.00,VWS V14.00,2014-01-15 18:45:00,
2014-01-15 12:00:00,50.2,13.9,29.83,NW,320,2.0,16.0,23,0.00,,---,0.00,401.00,VWS V14.00,2014-01-15 19:00:00,
2014-01-15 12:15:00,51.0,13.5,29.82,NNW,329,13.0,14.0,22,0.00,,---,0.00,804.00,VWS V14.00,2014-01-15 19:15:00,
2014-01-15 12:30:00,52.2,14.5,29.81,NNW,346,4.0,16.0,22,0.00,,---,0.00,772.00,VWS V14.00,2014-01-15 19:30:00,
2014-01-15 12:45:00,53.6,13.5,29.80,SW,219,8.0,12.0,20,0.00,,---,0.00,584.00,VWS V14.00,2014-01-15 19:45:00,
2014-01-15 13:00:00,53.6,13.5,29.80,North,0,5.0,11.0,20,0.00,,---,0.00,227.00,VWS V14.00,2014-01-15 20:00:00,
2014-01-15 13:15:00,52.9,12.9,29.80,WNW,295,2.0,12.0,20,0.00,,---,0.00,514.00,VWS V14.00,2014-01-15 20:15:00,
2014-01-15 13:30:00,51.4,12.8,29.79,WNW,285,12.0,19.0,21,0.00,,---,0.00,466.00,VWS V14.00,2014-01-15 20:30:00,
2014-01-15 13:45:00,51.1,12.5,29.79,WSW,257,12.0,17.0,21,0.00,,---,0.00,345.00,VWS V14.00,2014-01-15 20:45:00,
2014-01-15 14:00:00,52.8,14.0,29.77,WNW,292,3.0,16.0,21,0.00,,---,0.00,674.00,VWS V14.00,2014-01-15 21:00:00,
2014-01-15 14:15:00,51.6,11.9,29.78,West,277,20.0,20.0,20,0.00,,---,0.00,250.00,VWS V14.00,2014-01-15 21:15:00,
2014-01-15 14:30:00,51.3,12.7,29.80,NW,315,5.0,20.0,21,0.00,,---,0.00,211.00,VWS V14.00,2014-01-15 21:30:00,
2014-01-15 14:45:00,51.3,12.7,29.79,NW,311,5.0,14.0,21,0.00,,---,0.00,121.00,VWS V14.00,2014-01-15 21:45:00,
2014-01-15 15:00:00,51.0,13.5,29.80,WSW,253,7.0,16.0,22,0.00,,---,0.00,76.00,VWS V14.00,2014-01-15 22:00:00,
2014-01-15 15:15:00,51.0,12.5,29.78,West,280,8.0,12.0,21,0.00,,---,0.00,77.00,VWS V14.00,2014-01-15 22:15:00,
2014-01-15 15:30:00,50.4,13.0,29.79,NW,323,17.0,17.0,22,0.00,,---,0.00,97.00,VWS V14.00,2014-01-15 22:30:00,
2014-01-15 15:45:00,50.1,11.7,29.78,SW,233,9.0,17.0,21,0.00,,---,0.00,84.00,VWS V14.00,2014-01-15 22:45:00,
2014-01-15 16:00:00,51.0,10.2,29.77,WSW,246,7.0,14.0,19,0.00,,---,0.00,253.00,VWS V14.00,2014-01-15 23:00:00,
2014-01-15 16:15:00,50.2,10.7,29.67,North,359,10.0,25.0,20,0.00,,---,0.00,303.00,VWS V14.00,2014-01-15 23:15:00,
2014-01-15 16:30:00,49.9,10.4,29.67,North,0,5.0,25.0,20,0.00,,---,0.00,162.00,VWS V14.00,2014-01-15 23:30:00,
2014-01-15 16:45:00,49.2,8.7,29.68,NNW,347,7.0,16.0,19,0.00,,---,0.00,19.00,VWS V14.00,2014-01-15 23:45:00,
2014-01-15 17:00:00,48.3,9.1,29.69,NW,319,18.0,18.0,20,0.00,,---,0.00,7.00,VWS V14.00,2014-01-16 00:00:00,
2014-01-15 17:15:00,48.3,9.1,29.73,NNW,333,6.0,21.0,20,0.00,,---,0.00,0.00,VWS V14.00,2014-01-16 00:15:00,
2014-01-15 17:30:00,48.3,9.1,29.75,NNW,336,5.0,19.0,20,0.00,,---,0.00,0.00,VWS V14.00,2014-01-16 00:30:00,
2014-01-15 17:45:00,47.6,9.6,29.77,North,353,7.0,13.0,21,0.00,,---,0.00,0.00,VWS V14.00,2014-01-16 00:45:00,
2014-01-15 18:00:00,47.0,10.1,29.77,NNW,328,12.0,19.0,22,0.00,,---,0.00,0.00,VWS V14.00,2014-01-16 01:00:00,
2014-01-15 18:15:00,46.8,8.9,29.77,West,277,14.0,18.0,21,0.00,,---,0.00,0.00,VWS V14.00,2014-01-16 01:15:00,
2014-01-15 18:30:00,46.5,8.7,29.77,WNW,295,10.0,16.0,21,0.00,,---,0.00,0.00,VWS V14.00,2014-01-16 01:30:00,
2014-01-15 18:45:00,46.2,8.4,29.77,NNW,340,17.0,17.0,21,0.00,,---,0.00,0.00,VWS V14.00,2014-01-16 01:45:00,
2014-01-15 19:00:00,46.1,8.4,29.76,NNW,333,11.0,17.0,21,0.00,,---,0.00,0.00,VWS V14.00,2014-01-16 02:00:00,
2014-01-15 19:15:00,46.1,9.4,29.75,WSW,248,14.0,14.0,22,0.00,,---,0.00,0.00,VWS V14.00,2014-01-16 02:15:00,
2014-01-15 19:30:00,46.5,8.7,29.75,WSW,247,3.0,16.0,21,0.00,,---,0.00,0.00,VWS V14.00,2014-01-16 02:30:00,
2014-01-15 19:45:00,46.5,8.7,29.74,NW,326,3.0,13.0,21,0.00,,---,0.00,0.00,VWS V14.00,2014-01-16 02:45:00,
2014-01-15 20:00:00,46.5,8.7,29.73,NW,311,2.0,16.0,21,0.00,,---,0.00,0.00,VWS V14.00,2014-01-16 03:00:00,
2014-01-15 20:15:00,46.5,8.7,29.67,WNW,301,7.0,14.0,21,0.00,,---,0.00,0.00,VWS V14.00,2014-01-16 03:15:00,
2014-01-15 20:30:00,46.4,7.5,29.67,North,349,3.0,12.0,20,0.00,,---,0.00,0.00,VWS V14.00,2014-01-16 03:30:00,
2014-01-15 20:45:00,46.8,6.7,29.67,NW,315,11.0,17.0,19,0.00,,---,0.00,0.00,VWS V14.00,2014-01-16 03:45:00,
2014-01-15 21:00:00,46.4,7.5,29.69,NNW,333,7.0,19.0,20,0.00,,---,0.00,0.00,VWS V14.00,2014-01-16 04:00:00,
2014-01-15 21:15:00,46.0,8.3,29.68,NW,318,10.0,17.0,21,0.00,,---,0.00,0.00,VWS V14.00,2014-01-16 04:15:00,
2014-01-15 21:30:00,46.0,7.2,29.69,NW,326,13.0,16.0,20,0.00,,---,0.00,0.00,VWS V14.00,2014-01-16 04:30:00,
2014-01-15 21:45:00,46.5,6.5,29.69,NNW,336,13.0,14.0,19,0.00,,---,0.00,0.00,VWS V14.00,2014-01-16 04:45:00,
2014-01-15 22:00:00,46.8,5.5,29.70,NW,325,12.0,19.0,18,0.00,,---,0.00,0.00,VWS V14.00,2014-01-16 05:00:00,
2014-01-15 22:15:00,46.2,7.4,29.71,North,0,7.0,19.0,20,0.00,,---,0.00,0.00,VWS V14.00,2014-01-16 05:15:00,
2014-01-15 22:30:00,45.8,8.1,29.72,NW,322,12.0,21.0,21,0.00,,---,0.00,0.00,VWS V14.00,2014-01-16 05:30:00,
2014-01-15 22:45:00,45.4,8.8,29.72,WNW,294,11.0,20.0,22,0.00,,---,0.00,0.00,VWS V14.00,2014-01-16 05:45:00,
2014-01-15 23:00:00,45.2,8.6,29.73,NNW,347,1.0,18.0,22,0.00,,---,0.00,0.00,VWS V14.00,2014-01-16 06:00:00,
2014-01-15 23:15:00,45.1,8.5,29.75,North,0,11.0,20.0,22,0.00,,---,0.00,0.00,VWS V14.00,2014-01-16 06:15:00,
2014-01-15 23:30:00,44.9,8.4,29.75,West,278,8.0,16.0,22,0.00,,---,0.00,0.00,VWS V14.00,2014-01-16 06:30:00,
2014-01-15 23:45:00,44.6,8.1,29.74,NNW,330,13.0,17.0,22,0.00,,---,0.00,0.00,VWS V14.00,2014-01-16 06:45:00,